Time;durP1;ratioP1;P1;durP2;ratioP2;P2;SDS_P1;SDS_P2;PMS_P1;PMS_P2;Temp;Humidity;BMP_temperature;BMP_pressure;BME280_temperature;BME280_humidity;BME280_pressure;Samples;Min_cycle;Max_cycle;Signal;HPM_P1;HPM_P2
2023/11/02 00:00:43;;;;;;;;;;;23.10;67.20;;;;;;5005007;28;1676;-66
2023/11/02 00:03:09;;;;;;;;;;;23.10;67.20;;;;;;5027720;28;1387;-66
2023/11/02 00:05:53;;;;;;;;;;;23.10;67.30;;;;;;5008019;28;1915;-66
2023/11/02 00:08:23;;;;;;;;;;;23.10;67.40;;;;;;5026783;28;1389;-66
2023/11/02 00:10:48;;;;;;;;;;;23.10;67.40;;;;;;4989977;28;1402;-66
2023/11/02 00:13:18;;;;;;;;;;;23.10;67.40;;;;;;5010162;28;1383;-66
2023/11/02 00:15:46;;;;;;;;;;;23.10;66.60;;;;;;5006355;28;1595;-66
2023/11/02 00:18:12;;;;;;;;;;;23.00;66.70;;;;;;5027642;28;1262;-66
2023/11/02 00:20:37;;;;;;;;;;;23.10;66.80;;;;;;5005149;28;1602;-66
2023/11/02 00:23:03;;;;;;;;;;;23.00;66.80;;;;;;5028063;28;1354;-66
2023/11/02 00:25:29;;;;;;;;;;;23.00;66.70;;;;;;5027877;28;1910;-66
2023/11/02 00:27:54;;;;;;;;;;;23.00;66.80;;;;;;5026821;28;1249;-66
2023/11/02 00:30:20;;;;;;;;;;;23.00;66.80;;;;;;5026518;28;1307;-66
2023/11/02 00:32:46;;;;;;;;;;;23.00;66.90;;;;;;5025665;28;1306;-66
2023/11/02 00:35:11;;;;;;;;;;;23.00;67.00;;;;;;5026758;28;1368;-66
2023/11/02 00:37:38;;;;;;;;;;;23.00;67.00;;;;;;5003379;28;1436;-66
2023/11/02 00:40:05;;;;;;;;;;;23.00;67.00;;;;;;5026781;28;1771;-66
2023/11/02 00:42:30;;;;;;;;;;;23.00;67.10;;;;;;5008239;28;1498;-66
2023/11/02 00:44:56;;;;;;;;;;;23.00;67.10;;;;;;5006492;28;1914;-66
2023/11/02 00:47:21;;;;;;;;;;;23.00;67.20;;;;;;5026525;28;1372;-67
2023/11/02 00:49:47;;;;;;;;;;;23.00;67.20;;;;;;5025401;28;1400;-66
2023/11/02 00:52:14;;;;;;;;;;;23.00;67.20;;;;;;5007606;28;1423;-66
2023/11/02 00:54:55;;;;;;;;;;;23.00;67.20;;;;;;5026424;28;1321;-66
2023/11/02 00:57:22;;;;;;;;;;;23.10;67.40;;;;;;5006908;28;1363;-67
2023/11/02 00:59:48;;;;;;;;;;;23.00;67.40;;;;;;5027257;28;1428;-66
2023/11/02 01:02:14;;;;;;;;;;;23.10;67.40;;;;;;5027519;28;1374;-66
2023/11/02 01:04:39;;;;;;;;;;;23.10;67.50;;;;;;5025486;28;1914;-66
2023/11/02 01:07:04;;;;;;;;;;;23.10;67.50;;;;;;5026625;28;1484;-66
2023/11/02 01:09:51;;;;;;;;;;;23.10;67.60;;;;;;5026399;28;1417;-66
2023/11/02 01:12:32;;;;;;;;;;;23.00;67.50;;;;;;5026664;28;1432;-66
2023/11/02 01:14:57;;;;;;;;;;;23.00;67.50;;;;;;5007826;28;1453;-66
2023/11/02 01:17:33;;;;;;;;;;;23.10;67.60;;;;;;5027498;28;1222;-66
2023/11/02 01:20:05;;;;;;;;;;;23.10;67.60;;;;;;5025847;28;1257;-66
2023/11/02 01:22:34;;;;;;;;;;;23.10;67.60;;;;;;5028597;28;1340;-66
2023/11/02 01:25:00;;;;;;;;;;;23.00;67.60;;;;;;5030793;28;1967;-66
2023/11/02 01:27:27;;;;;;;;;;;23.10;67.70;;;;;;5009407;28;1695;-66
2023/11/02 01:29:52;;;;;;;;;;;23.10;67.70;;;;;;5010645;28;1431;-66
2023/11/02 01:32:18;;;;;;;;;;;23.10;67.80;;;;;;5028442;28;1448;-66
2023/11/02 01:34:43;;;;;;;;;;;23.10;67.70;;;;;;5027738;28;1432;-66
2023/11/02 01:37:09;;;;;;;;;;;23.10;67.70;;;;;;5030827;28;1247;-66
2023/11/02 01:39:37;;;;;;;;;;;23.10;68.50;;;;;;5025304;28;1660;-66
2023/11/02 01:42:11;;;;;;;;;;;23.10;67.80;;;;;;5027925;28;1408;-66
2023/11/02 01:44:46;;;;;;;;;;;23.10;67.80;;;;;;5027691;28;1906;-66
2023/11/02 01:47:24;;;;;;;;;;;23.10;67.80;;;;;;5027667;28;1367;-66
2023/11/02 01:50:13;;;;;;;;;;;23.10;67.80;;;;;;5029717;28;1424;-67
2023/11/02 01:52:47;;;;;;;;;;;23.10;67.90;;;;;;5023996;28;1489;-67
2023/11/02 01:55:32;;;;;;;;;;;23.10;67.90;;;;;;5030567;28;1441;-67
2023/11/02 01:58:15;;;;;;;;;;;23.10;67.90;;;;;;5029548;28;1249;-67
2023/11/02 02:00:49;;;;;;;;;;;23.10;67.90;;;;;;5029305;28;1490;-67
2023/11/02 02:03:21;;;;;;;;;;;23.10;67.90;;;;;;5008225;28;1561;-66
2023/11/02 02:05:51;;;;;;;;;;;23.10;67.90;;;;;;5028985;28;1906;-66
2023/11/02 02:08:22;;;;;;;;;;;23.10;68.00;;;;;;5011757;28;1308;-67
2023/11/02 02:11:05;;;;;;;;;;;23.10;68.10;;;;;;5029332;28;1515;-66
2023/11/02 02:13:35;;;;;;;;;;;23.10;68.20;;;;;;5009804;28;1317;-66
2023/11/02 02:16:01;;;;;;;;;;;23.10;68.10;;;;;;5007454;28;1307;-67
2023/11/02 02:18:34;;;;;;;;;;;23.10;68.10;;;;;;5008948;28;1336;-67
2023/11/02 02:21:03;;;;;;;;;;;23.10;68.10;;;;;;5029310;28;1519;-67
2023/11/02 02:23:29;;;;;;;;;;;23.20;68.20;;;;;;5029525;28;1274;-67
2023/11/02 02:26:01;;;;;;;;;;;23.20;68.00;;;;;;5006347;28;1971;-67
2023/11/02 02:28:45;;;;;;;;;;;23.20;68.00;;;;;;5010151;28;1498;-67
2023/11/02 02:31:31;;;;;;;;;;;23.20;67.90;;;;;;5027268;28;1610;-67
2023/11/02 02:33:56;;;;;;;;;;;23.20;67.90;;;;;;5030122;28;1256;-67
2023/11/02 02:36:25;;;;;;;;;;;23.20;67.80;;;;;;5026876;28;1302;-67
2023/11/02 02:38:51;;;;;;;;;;;23.20;67.80;;;;;;5010935;28;1356;-67
2023/11/02 02:41:17;;;;;;;;;;;23.30;67.70;;;;;;5029300;28;1464;-67
2023/11/02 02:43:43;;;;;;;;;;;23.20;67.20;;;;;;5006341;28;1509;-67
2023/11/02 02:46:09;;;;;;;;;;;23.20;66.50;;;;;;5026636;28;1898;-67
2023/11/02 02:48:35;;;;;;;;;;;23.20;66.20;;;;;;5028876;28;1594;-67
2023/11/02 02:51:02;;;;;;;;;;;23.10;66.20;;;;;;5008125;28;1407;-67
2023/11/02 02:53:28;;;;;;;;;;;23.20;66.40;;;;;;5010182;28;1349;-67
2023/11/02 02:55:58;;;;;;;;;;;23.10;66.50;;;;;;5007465;28;1317;-67
2023/11/02 02:58:23;;;;;;;;;;;23.10;66.60;;;;;;5029644;28;1396;-67
2023/11/02 03:00:49;;;;;;;;;;;23.00;66.70;;;;;;5029144;28;1368;-67
2023/11/02 03:03:15;;;;;;;;;;;23.00;66.80;;;;;;4993842;28;1741;-67
2023/11/02 03:05:40;;;;;;;;;;;23.00;66.90;;;;;;5004684;28;1969;-66
2023/11/02 03:08:06;;;;;;;;;;;22.90;67.00;;;;;;5005680;28;1277;-67
2023/11/02 03:10:31;;;;;;;;;;;22.80;67.00;;;;;;5029008;28;1438;-67
2023/11/02 03:12:59;;;;;;;;;;;22.80;67.10;;;;;;5028038;28;1147;-67
2023/11/02 03:15:28;;;;;;;;;;;22.80;67.20;;;;;;5002021;28;1417;-67
2023/11/02 03:18:09;;;;;;;;;;;22.80;67.40;;;;;;5011589;28;1124;-67
2023/11/02 03:20:35;;;;;;;;;;;22.70;67.40;;;;;;5027119;28;1520;-67
2023/11/02 03:23:19;;;;;;;;;;;22.70;67.50;;;;;;5008817;28;999;-67
2023/11/02 03:25:47;;;;;;;;;;;22.70;67.60;;;;;;5027185;28;1910;-67
2023/11/02 03:28:31;;;;;;;;;;;22.60;67.70;;;;;;5027802;28;1112;-67
2023/11/02 03:31:03;;;;;;;;;;;22.60;67.70;;;;;;5014048;28;1316;-66
2023/11/02 03:33:52;;;;;;;;;;;22.60;67.80;;;;;;5028604;28;1398;-67
2023/11/02 03:36:22;;;;;;;;;;;22.50;67.80;;;;;;5006440;28;1287;-66
2023/11/02 03:39:14;;;;;;;;;;;22.50;67.90;;;;;;5027865;28;1908;-67
2023/11/02 03:41:52;;;;;;;;;;;22.50;67.90;;;;;;5010743;28;1841;-67
2023/11/02 03:44:36;;;;;;;;;;;22.50;68.00;;;;;;4990570;28;1523;-67
2023/11/02 03:47:26;;;;;;;;;;;22.50;68.10;;;;;;5028694;28;1140;-67
2023/11/02 03:49:52;;;;;;;;;;;22.40;68.10;;;;;;5007956;28;1291;-67
2023/11/02 03:52:20;;;;;;;;;;;22.40;68.20;;;;;;5029294;28;1425;-67
2023/11/02 03:54:49;;;;;;;;;;;22.40;68.20;;;;;;5028350;28;1499;-66
2023/11/02 03:57:19;;;;;;;;;;;22.40;68.30;;;;;;5028009;28;1448;-66
2023/11/02 04:00:09;;;;;;;;;;;22.40;68.30;;;;;;5003877;28;1482;-66
2023/11/02 04:02:36;;;;;;;;;;;22.40;68.40;;;;;;5026900;28;1259;-66
2023/11/02 04:05:05;;;;;;;;;;;22.30;68.40;;;;;;5028720;28;1971;-67
2023/11/02 04:07:31;;;;;;;;;;;22.30;68.40;;;;;;5025821;28;1330;-66
2023/11/02 04:10:07;;;;;;;;;;;22.30;68.50;;;;;;5001702;28;1375;-66
2023/11/02 04:12:33;;;;;;;;;;;22.30;68.50;;;;;;5009342;28;1327;-66
2023/11/02 04:15:01;;;;;;;;;;;22.30;68.50;;;;;;5010345;28;1368;-66
2023/11/02 04:17:27;;;;;;;;;;;22.20;68.50;;;;;;5002132;28;1575;-67
2023/11/02 04:19:53;;;;;;;;;;;22.20;68.50;;;;;;5006401;28;1597;-67
2023/11/02 04:22:18;;;;;;;;;;;22.20;68.60;;;;;;5025573;28;1466;-67
2023/11/02 04:24:44;;;;;;;;;;;22.20;68.60;;;;;;5026341;28;1911;-67
2023/11/02 04:27:09;;;;;;;;;;;22.20;68.70;;;;;;5026231;28;1236;-67
2023/11/02 04:29:34;;;;;;;;;;;22.20;68.70;;;;;;5025096;28;1438;-67
2023/11/02 04:32:00;;;;;;;;;;;22.20;68.70;;;;;;5019038;28;1974;-68
2023/11/02 04:34:25;;;;;;;;;;;22.10;68.70;;;;;;5026484;28;1918;-67
2023/11/02 04:36:51;;;;;;;;;;;22.10;68.70;;;;;;5023402;28;1334;-68
2023/11/02 04:39:16;;;;;;;;;;;22.10;68.70;;;;;;5004389;28;1208;-68
2023/11/02 04:41:42;;;;;;;;;;;22.10;68.80;;;;;;5026489;28;1447;-68
2023/11/02 04:44:07;;;;;;;;;;;22.10;68.80;;;;;;5027673;28;1504;-68
2023/11/02 04:46:33;;;;;;;;;;;22.10;68.80;;;;;;5008782;28;1910;-68
2023/11/02 04:48:58;;;;;;;;;;;22.00;68.80;;;;;;5025893;28;1180;-67
2023/11/02 04:51:24;;;;;;;;;;;22.10;68.90;;;;;;5027144;28;1457;-67
2023/11/02 04:53:50;;;;;;;;;;;22.00;68.80;;;;;;5025354;28;1432;-69
2023/11/02 04:56:19;;;;;;;;;;;22.00;68.90;;;;;;5024640;28;992;-68
2023/11/02 04:58:44;;;;;;;;;;;22.00;68.90;;;;;;5023185;28;1433;-69
2023/11/02 05:01:10;;;;;;;;;;;22.00;68.90;;;;;;5027063;28;1318;-69
2023/11/02 05:03:35;;;;;;;;;;;22.00;68.90;;;;;;5024345;28;1674;-69
2023/11/02 05:06:01;;;;;;;;;;;22.00;68.90;;;;;;5026364;28;1894;-69
2023/11/02 05:08:26;;;;;;;;;;;22.00;69.00;;;;;;5025300;28;1313;-69
2023/11/02 05:10:52;;;;;;;;;;;21.90;68.90;;;;;;5001617;28;1321;-70
2023/11/02 05:13:17;;;;;;;;;;;21.90;68.90;;;;;;5027164;28;1565;-68
2023/11/02 05:15:43;;;;;;;;;;;21.90;69.00;;;;;;5025389;28;1450;-68
2023/11/02 05:18:08;;;;;;;;;;;21.90;69.00;;;;;;5005136;28;1396;-68
2023/11/02 05:20:34;;;;;;;;;;;21.90;69.00;;;;;;5026659;28;1354;-69
2023/11/02 05:22:59;;;;;;;;;;;21.90;69.10;;;;;;5025101;28;1430;-67
2023/11/02 05:25:25;;;;;;;;;;;21.90;69.00;;;;;;5025610;28;1970;-66
2023/11/02 05:27:50;;;;;;;;;;;21.90;69.00;;;;;;5026567;28;1394;-68
2023/11/02 05:30:16;;;;;;;;;;;21.90;69.10;;;;;;5006114;28;1233;-69
2023/11/02 05:32:41;;;;;;;;;;;21.90;69.10;;;;;;5024021;28;1501;-69
2023/11/02 05:35:09;;;;;;;;;;;21.80;69.10;;;;;;5026584;28;1537;-68
2023/11/02 05:37:35;;;;;;;;;;;21.80;69.10;;;;;;5024805;28;1503;-66
2023/11/02 05:40:00;;;;;;;;;;;21.80;69.00;;;;;;5007078;28;1256;-69
2023/11/02 05:42:29;;;;;;;;;;;21.80;69.10;;;;;;5023927;28;1447;-67
2023/11/02 05:44:55;;;;;;;;;;;21.80;69.10;;;;;;5026670;28;1902;-69
2023/11/02 05:47:21;;;;;;;;;;;21.80;69.10;;;;;;5023968;28;1181;-69
2023/11/02 05:49:46;;;;;;;;;;;21.80;69.20;;;;;;5006933;28;1380;-68
2023/11/02 05:52:12;;;;;;;;;;;21.80;69.20;;;;;;5023797;28;1476;-68
2023/11/02 05:54:37;;;;;;;;;;;21.80;69.20;;;;;;5023759;28;1471;-69
2023/11/02 05:57:03;;;;;;;;;;;21.80;69.20;;;;;;5025957;28;1116;-68
2023/11/02 05:59:28;;;;;;;;;;;21.80;69.20;;;;;;5025730;28;1465;-70
2023/11/02 06:01:54;;;;;;;;;;;21.80;69.20;;;;;;5002108;28;1401;-70
2023/11/02 06:04:20;;;;;;;;;;;21.80;69.20;;;;;;5023251;28;957;-70
2023/11/02 06:06:45;;;;;;;;;;;21.70;69.20;;;;;;5005236;28;1938;-69
2023/11/02 06:09:11;;;;;;;;;;;21.70;69.20;;;;;;5008144;28;1193;-70
2023/11/02 06:11:38;;;;;;;;;;;21.70;69.20;;;;;;5029553;28;1347;-67
2023/11/02 06:14:03;;;;;;;;;;;21.70;69.30;;;;;;5027083;28;840;-68
2023/11/02 06:16:29;;;;;;;;;;;21.70;69.20;;;;;;5027145;28;1143;-69
2023/11/02 06:18:54;;;;;;;;;;;21.70;69.30;;;;;;5028546;28;1324;-68
2023/11/02 06:21:21;;;;;;;;;;;21.70;69.30;;;;;;5028139;28;1264;-68
2023/11/02 06:23:46;;;;;;;;;;;21.70;70.10;;;;;;5027302;28;1348;-67
2023/11/02 06:26:12;;;;;;;;;;;21.70;69.30;;;;;;5028361;28;1969;-69
2023/11/02 06:28:37;;;;;;;;;;;21.70;69.30;;;;;;5029534;28;1216;-70
2023/11/02 06:31:03;;;;;;;;;;;21.70;69.30;;;;;;5030535;28;1272;-68
2023/11/02 06:33:29;;;;;;;;;;;21.70;69.30;;;;;;5029093;28;1931;-69
2023/11/02 06:35:56;;;;;;;;;;;21.70;69.20;;;;;;5005893;28;1287;-67
2023/11/02 06:38:22;;;;;;;;;;;21.70;64.50;;;;;;5014605;28;1285;-67
2023/11/02 06:40:47;;;;;;;;;;;21.60;59.60;;;;;;5007122;28;1509;-67
2023/11/02 06:43:13;;;;;;;;;;;21.60;58.40;;;;;;5030201;28;1162;-67
2023/11/02 06:45:38;;;;;;;;;;;21.60;58.20;;;;;;5027542;28;1973;-68
2023/11/02 06:48:04;;;;;;;;;;;21.50;57.00;;;;;;5007107;28;1377;-67
2023/11/02 06:50:30;;;;;;;;;;;21.50;56.30;;;;;;5004760;28;1458;-67
2023/11/02 06:52:55;;;;;;;;;;;21.50;55.80;;;;;;5012774;28;1447;-67
2023/11/02 06:55:21;;;;;;;;;;;21.40;57.80;;;;;;5028534;28;1027;-66
2023/11/02 06:57:46;;;;;;;;;;;21.40;58.30;;;;;;5027701;28;1639;-67
2023/11/02 07:00:13;;;;;;;;;;;21.40;58.70;;;;;;5008722;28;1544;-66
2023/11/02 07:02:41;;;;;;;;;;;21.40;58.90;;;;;;5028110;28;1471;-66
2023/11/02 07:05:07;;;;;;;;;;;21.40;59.10;;;;;;5006877;28;1902;-66
2023/11/02 07:07:38;;;;;;;;;;;21.40;59.40;;;;;;5027065;28;1451;-66
2023/11/02 07:10:05;;;;;;;;;;;21.40;59.60;;;;;;5009821;28;1342;-66
2023/11/02 07:12:31;;;;;;;;;;;21.40;59.90;;;;;;5029019;28;1443;-66
2023/11/02 07:14:56;;;;;;;;;;;21.40;61.00;;;;;;5028953;28;1381;-66
2023/11/02 07:17:22;;;;;;;;;;;21.40;60.70;;;;;;5027010;28;1475;-66
2023/11/02 07:19:47;;;;;;;;;;;21.40;61.10;;;;;;5027827;28;1341;-66
2023/11/02 07:22:13;;;;;;;;;;;21.40;61.40;;;;;;5029831;28;1389;-67
2023/11/02 07:24:38;;;;;;;;;;;21.40;61.70;;;;;;5007434;28;1902;-67
2023/11/02 07:27:04;;;;;;;;;;;21.50;62.10;;;;;;5026004;28;1496;-67
2023/11/02 07:29:30;;;;;;;;;;;21.50;62.30;;;;;;5006288;28;1369;-67
2023/11/02 07:31:56;;;;;;;;;;;21.50;62.50;;;;;;5029223;28;1267;-67
2023/11/02 07:34:22;;;;;;;;;;;21.50;62.50;;;;;;5026332;28;1324;-67
2023/11/02 07:36:49;;;;;;;;;;;21.50;62.80;;;;;;5027004;28;1621;-69
2023/11/02 07:39:16;;;;;;;;;;;21.50;63.00;;;;;;5029527;28;1430;-68
2023/11/02 07:41:41;;;;;;;;;;;21.50;63.00;;;;;;5028042;28;1353;-68
2023/11/02 07:44:07;;;;;;;;;;;21.60;63.30;;;;;;5026009;28;1432;-68
2023/11/02 07:46:33;;;;;;;;;;;21.60;63.40;;;;;;5026844;28;1965;-67
2023/11/02 07:48:58;;;;;;;;;;;21.60;63.50;;;;;;5009945;28;1276;-66
2023/11/02 07:51:24;;;;;;;;;;;21.60;63.60;;;;;;5028279;28;1437;-67
2023/11/02 07:53:49;;;;;;;;;;;21.60;63.70;;;;;;5027637;28;1515;-67
2023/11/02 07:56:14;;;;;;;;;;;21.60;63.70;;;;;;5026634;28;1489;-67
2023/11/02 07:58:43;;;;;;;;;;;21.60;63.90;;;;;;5027427;28;1436;-67
2023/11/02 08:01:09;;;;;;;;;;;21.60;63.90;;;;;;5027413;28;1468;-67
2023/11/02 08:03:34;;;;;;;;;;;21.60;63.90;;;;;;5027826;28;1355;-66
2023/11/02 08:06:00;;;;;;;;;;;21.60;64.00;;;;;;5002172;28;1898;-67
2023/11/02 08:08:26;;;;;;;;;;;21.60;64.10;;;;;;5011059;28;1321;-67
2023/11/02 08:10:51;;;;;;;;;;;21.60;64.10;;;;;;5027638;28;1414;-67
2023/11/02 08:13:17;;;;;;;;;;;21.70;64.20;;;;;;5028713;28;1343;-67
2023/11/02 08:15:43;;;;;;;;;;;21.70;64.30;;;;;;5027422;28;1406;-66
2023/11/02 08:18:08;;;;;;;;;;;21.70;64.30;;;;;;5028592;28;1307;-67
2023/11/02 08:20:34;;;;;;;;;;;21.70;64.40;;;;;;5025151;28;1308;-68
2023/11/02 08:23:00;;;;;;;;;;;21.70;64.40;;;;;;5028540;28;1619;-68
2023/11/02 08:25:25;;;;;;;;;;;21.70;64.50;;;;;;5025468;28;1973;-69
2023/11/02 08:27:57;;;;;;;;;;;21.70;64.50;;;;;;5024519;28;1365;-68
2023/11/02 08:30:23;;;;;;;;;;;21.70;64.50;;;;;;5023618;28;1292;-68
2023/11/02 08:32:49;;;;;;;;;;;21.70;64.70;;;;;;5027166;28;1420;-67
2023/11/02 08:35:17;;;;;;;;;;;21.70;64.60;;;;;;5027908;28;1283;-67
2023/11/02 08:37:43;;;;;;;;;;;21.70;64.70;;;;;;5026160;28;1569;-67
2023/11/02 08:40:09;;;;;;;;;;;21.70;64.70;;;;;;5028828;28;1712;-68
2023/11/02 08:42:34;;;;;;;;;;;21.70;64.70;;;;;;5011447;28;1309;-67
2023/11/02 08:45:00;;;;;;;;;;;21.70;64.80;;;;;;5027776;28;1914;-67
2023/11/02 08:47:25;;;;;;;;;;;21.70;64.80;;;;;;5026779;28;1516;-68
2023/11/02 08:49:51;;;;;;;;;;;21.70;64.80;;;;;;5026289;28;1716;-67
2023/11/02 08:52:16;;;;;;;;;;;21.70;64.80;;;;;;5026680;28;1269;-68
2023/11/02 08:54:42;;;;;;;;;;;21.70;64.80;;;;;;5027147;28;1111;-68
2023/11/02 08:57:07;;;;;;;;;;;21.70;64.90;;;;;;5026655;28;1158;-68
2023/11/02 08:59:32;;;;;;;;;;;21.70;64.90;;;;;;5026434;28;1364;-68
2023/11/02 09:01:58;;;;;;;;;;;21.70;64.90;;;;;;5008571;28;1371;-68
2023/11/02 09:04:24;;;;;;;;;;;21.70;64.90;;;;;;5026023;28;1469;-68
2023/11/02 09:06:50;;;;;;;;;;;21.70;65.00;;;;;;5026123;28;1973;-68
2023/11/02 09:09:15;;;;;;;;;;;21.70;65.00;;;;;;5027364;28;1098;-69
2023/11/02 09:11:41;;;;;;;;;;;21.70;65.10;;;;;;5025503;28;1374;-69
2023/11/02 09:14:06;;;;;;;;;;;21.70;65.10;;;;;;5002949;28;1086;-68
2023/11/02 09:16:31;;;;;;;;;;;21.70;65.20;;;;;;5007487;28;2132;-67
2023/11/02 09:19:00;;;;;;;;;;;21.70;65.20;;;;;;5027559;28;1323;-67
2023/11/02 09:21:25;;;;;;;;;;;21.70;65.30;;;;;;5010303;28;1391;-68
2023/11/02 09:23:52;;;;;;;;;;;21.70;65.40;;;;;;5025624;28;1063;-68
2023/11/02 09:26:17;;;;;;;;;;;21.70;65.40;;;;;;5027102;28;1898;-68
2023/11/02 09:28:42;;;;;;;;;;;21.60;65.40;;;;;;5026174;28;1336;-68
2023/11/02 09:31:12;;;;;;;;;;;21.60;65.40;;;;;;5025530;28;1451;-67
2023/11/02 09:33:38;;;;;;;;;;;21.60;65.50;;;;;;5025442;28;1335;-68
2023/11/02 09:36:04;;;;;;;;;;;21.60;65.60;;;;;;5026692;28;1513;-68
2023/11/02 09:38:29;;;;;;;;;;;21.60;65.60;;;;;;5010446;28;1349;-68
2023/11/02 09:40:55;;;;;;;;;;;21.60;65.70;;;;;;5027582;28;1372;-68
2023/11/02 09:43:20;;;;;;;;;;;21.60;65.70;;;;;;5027864;28;1395;-67
2023/11/02 09:45:48;;;;;;;;;;;21.60;65.70;;;;;;5030751;28;1961;-67
2023/11/02 09:48:14;;;;;;;;;;;21.60;65.80;;;;;;5009377;28;1424;-68
2023/11/02 09:50:39;;;;;;;;;;;21.60;65.90;;;;;;5033727;28;1266;-68
2023/11/02 09:53:05;;;;;;;;;;;21.60;65.90;;;;;;5032028;28;986;-67
2023/11/02 09:55:30;;;;;;;;;;;21.60;66.00;;;;;;5030943;28;1179;-67
2023/11/02 09:57:56;;;;;;;;;;;21.50;66.00;;;;;;5030340;28;991;-67
2023/11/02 10:00:21;;;;;;;;;;;21.50;66.00;;;;;;5029482;28;1890;-68
2023/11/02 10:02:47;;;;;;;;;;;21.50;66.00;;;;;;5029705;28;1345;-67
2023/11/02 10:05:12;;;;;;;;;;;21.50;66.10;;;;;;5030087;28;1914;-69
2023/11/02 10:07:38;;;;;;;;;;;21.50;66.10;;;;;;5009745;28;1366;-68
2023/11/02 10:10:04;;;;;;;;;;;21.50;66.10;;;;;;5027731;28;1292;-68
2023/11/02 10:12:32;;;;;;;;;;;21.50;66.20;;;;;;5028570;28;1270;-69
2023/11/02 10:14:58;;;;;;;;;;;21.50;66.20;;;;;;5010979;28;1283;-69
2023/11/02 10:17:23;;;;;;;;;;;21.50;66.20;;;;;;5029938;28;1203;-68
2023/11/02 10:19:50;;;;;;;;;;;21.50;66.30;;;;;;5027407;28;1394;-69
2023/11/02 10:22:16;;;;;;;;;;;21.50;66.40;;;;;;5011799;28;1046;-68
2023/11/02 10:24:42;;;;;;;;;;;21.50;66.40;;;;;;5029569;28;1967;-68
2023/11/02 10:27:10;;;;;;;;;;;21.50;66.40;;;;;;5027987;28;1112;-68
2023/11/02 10:29:36;;;;;;;;;;;21.50;66.50;;;;;;5020709;28;2502;-68
2023/11/02 10:32:01;;;;;;;;;;;21.50;66.50;;;;;;5012454;28;1383;-68
2023/11/02 10:34:27;;;;;;;;;;;21.50;66.50;;;;;;5012275;28;1643;-68
2023/11/02 10:36:53;;;;;;;;;;;21.50;66.60;;;;;;4996479;28;2425;-68
2023/11/02 10:39:22;;;;;;;;;;;21.50;66.70;;;;;;5021092;28;2326;-68
2023/11/02 10:42:00;;;;;;;;;;;21.50;66.70;;;;;;5008218;28;2784;-67
2023/11/02 10:44:29;;;;;;;;;;;21.40;66.60;;;;;;5010475;28;1386;-67
2023/11/02 10:46:59;;;;;;;;;;;21.40;66.70;;;;;;5027516;28;1906;-68
2023/11/02 10:49:26;;;;;;;;;;;21.40;66.70;;;;;;5011176;28;1372;-68
2023/11/02 10:51:51;;;;;;;;;;;21.40;66.70;;;;;;5010964;28;1451;-67
2023/11/02 10:54:17;;;;;;;;;;;21.40;66.80;;;;;;5028694;28;1531;-68
2023/11/02 10:56:43;;;;;;;;;;;21.40;66.80;;;;;;5024814;28;1434;-68
2023/11/02 10:59:09;;;;;;;;;;;21.40;66.80;;;;;;5003033;28;1364;-68
2023/11/02 11:01:35;;;;;;;;;;;21.40;66.90;;;;;;5005928;28;1516;-68
2023/11/02 11:04:01;;;;;;;;;;;21.40;66.90;;;;;;5023929;28;1537;-68
2023/11/02 11:06:27;;;;;;;;;;;21.40;66.90;;;;;;5025042;28;1930;-68
2023/11/02 11:08:54;;;;;;;;;;;21.40;66.90;;;;;;5005088;28;1732;-67
2023/11/02 11:11:19;;;;;;;;;;;21.40;67.00;;;;;;5005152;28;1359;-68
2023/11/02 11:13:46;;;;;;;;;;;21.40;67.00;;;;;;5002105;28;1227;-68
2023/11/02 11:16:11;;;;;;;;;;;21.40;67.00;;;;;;5026871;28;1523;-68
2023/11/02 11:18:37;;;;;;;;;;;21.40;67.10;;;;;;4983508;28;1529;-67
2023/11/02 11:21:03;;;;;;;;;;;21.40;67.10;;;;;;5004361;28;1349;-68
2023/11/02 11:23:28;;;;;;;;;;;21.30;67.00;;;;;;5005062;28;1399;-68
2023/11/02 11:25:55;;;;;;;;;;;21.30;67.10;;;;;;5025727;28;1941;-68
2023/11/02 11:28:27;;;;;;;;;;;21.30;67.10;;;;;;5026950;28;1340;-68
2023/11/02 11:30:53;;;;;;;;;;;21.30;67.10;;;;;;5008606;28;1418;-67
2023/11/02 11:33:37;;;;;;;;;;;21.30;67.20;;;;;;5026430;28;1221;-68
2023/11/02 11:36:17;;;;;;;;;;;21.30;67.20;;;;;;5027570;28;1140;-68
2023/11/02 11:38:42;;;;;;;;;;;21.30;67.20;;;;;;5025641;28;1539;-68
2023/11/02 11:41:27;;;;;;;;;;;21.30;67.20;;;;;;5024928;28;1335;-68
2023/11/02 11:44:01;;;;;;;;;;;21.30;67.30;;;;;;5028093;28;1397;-68
2023/11/02 11:46:46;;;;;;;;;;;21.30;67.30;;;;;;5010486;28;1975;-68
2023/11/02 11:49:30;;;;;;;;;;;21.30;67.30;;;;;;5009327;28;1245;-68
2023/11/02 11:51:56;;;;;;;;;;;21.30;67.40;;;;;;5029662;28;1778;-68
2023/11/02 11:54:25;;;;;;;;;;;21.30;67.40;;;;;;5005728;28;1740;-68
2023/11/02 11:56:50;;;;;;;;;;;21.30;67.40;;;;;;5006673;28;1718;-68
2023/11/02 11:59:17;;;;;;;;;;;21.30;67.40;;;;;;5026401;28;1050;-68
2023/11/02 12:01:43;;;;;;;;;;;21.30;67.40;;;;;;5027485;28;1316;-68
2023/11/02 12:04:09;;;;;;;;;;;21.30;67.50;;;;;;5025877;28;1283;-68
2023/11/02 12:06:38;;;;;;;;;;;21.20;67.40;;;;;;5006943;28;1964;-68
2023/11/02 12:09:04;;;;;;;;;;;21.20;67.40;;;;;;5003732;28;985;-68
2023/11/02 12:11:29;;;;;;;;;;;21.20;67.50;;;;;;5027565;28;1371;-68
2023/11/02 12:13:57;;;;;;;;;;;21.30;67.70;;;;;;5005262;28;1583;-68
2023/11/02 12:16:30;;;;;;;;;;;21.20;67.50;;;;;;5005535;28;1260;-66
2023/11/02 12:18:55;;;;;;;;;;;21.20;67.50;;;;;;5006484;28;1323;-68
2023/11/02 12:21:22;;;;;;;;;;;21.20;67.50;;;;;;5027024;28;1524;-68
2023/11/02 12:23:50;;;;;;;;;;;21.20;67.50;;;;;;5026994;28;1587;-68
2023/11/02 12:26:18;;;;;;;;;;;21.20;67.60;;;;;;5007735;28;1898;-68
2023/11/02 12:28:48;;;;;;;;;;;21.20;67.60;;;;;;5026297;28;1538;-68
2023/11/02 12:31:14;;;;;;;;;;;21.20;67.60;;;;;;5027538;28;1295;-68
2023/11/02 12:33:39;;;;;;;;;;;21.20;67.60;;;;;;5004855;28;1440;-68
2023/11/02 12:36:05;;;;;;;;;;;21.20;67.70;;;;;;5009505;28;1478;-68
2023/11/02 12:38:37;;;;;;;;;;;21.20;67.70;;;;;;5028616;28;1447;-68
2023/11/02 12:41:05;;;;;;;;;;;21.20;67.70;;;;;;5026674;28;1303;-69
2023/11/02 12:43:33;;;;;;;;;;;21.20;67.70;;;;;;5007474;28;1431;-67
2023/11/02 12:46:04;;;;;;;;;;;21.20;67.70;;;;;;5027346;28;2390;-68
2023/11/02 12:48:39;;;;;;;;;;;21.20;67.70;;;;;;5024716;28;1514;-68
2023/11/02 12:51:17;;;;;;;;;;;21.20;67.70;;;;;;5008779;28;1474;-68
2023/11/02 12:53:46;;;;;;;;;;;21.20;67.80;;;;;;5009189;28;1440;-69
2023/11/02 12:56:14;;;;;;;;;;;21.20;67.80;;;;;;5026086;28;1447;-68
2023/11/02 12:58:39;;;;;;;;;;;21.10;67.80;;;;;;5009428;28;1461;-68
2023/11/02 13:01:05;;;;;;;;;;;21.20;67.90;;;;;;5025050;28;1401;-68
2023/11/02 13:03:31;;;;;;;;;;;21.20;67.80;;;;;;5007032;28;1482;-68
2023/11/02 13:05:56;;;;;;;;;;;21.20;68.30;;;;;;5027960;28;1890;-67
2023/11/02 13:08:22;;;;;;;;;;;21.20;67.80;;;;;;5025715;28;1433;-68
2023/11/02 13:10:50;;;;;;;;;;;21.20;67.70;;;;;;5008244;28;1599;-69
2023/11/02 13:13:16;;;;;;;;;;;21.30;67.70;;;;;;5029301;28;1376;-69
2023/11/02 13:15:42;;;;;;;;;;;21.30;67.70;;;;;;5004079;28;1558;-68
2023/11/02 13:18:09;;;;;;;;;;;21.40;67.60;;;;;;5029845;28;1408;-67
2023/11/02 13:20:35;;;;;;;;;;;21.50;67.40;;;;;;5026664;28;1339;-67
2023/11/02 13:23:01;;;;;;;;;;;21.50;67.20;;;;;;5013753;28;1554;-68
2023/11/02 13:25:27;;;;;;;;;;;21.60;67.10;;;;;;5029797;28;1894;-67
2023/11/02 13:27:54;;;;;;;;;;;21.70;66.90;;;;;;5010351;28;1333;-67
2023/11/02 13:30:20;;;;;;;;;;;21.80;66.70;;;;;;5028418;28;1443;-67
2023/11/02 13:32:46;;;;;;;;;;;21.80;66.50;;;;;;5030430;28;1634;-66
2023/11/02 13:35:11;;;;;;;;;;;21.90;66.30;;;;;;5028451;28;1472;-67
2023/11/02 13:37:38;;;;;;;;;;;22.00;66.10;;;;;;5005732;28;1574;-68
2023/11/02 13:40:09;;;;;;;;;;;22.00;65.90;;;;;;5030406;28;1363;-67
2023/11/02 13:42:34;;;;;;;;;;;22.00;65.70;;;;;;5029182;28;1269;-67
2023/11/02 13:45:00;;;;;;;;;;;22.10;65.50;;;;;;5029556;28;1981;-67
2023/11/02 13:47:26;;;;;;;;;;;22.20;65.30;;;;;;5028702;28;1699;-68
2023/11/02 13:49:51;;;;;;;;;;;22.20;65.20;;;;;;5028309;28;1303;-67
2023/11/02 13:52:17;;;;;;;;;;;22.30;65.00;;;;;;5029076;28;1237;-67
2023/11/02 13:54:43;;;;;;;;;;;22.30;64.90;;;;;;4990618;28;1469;-67
2023/11/02 13:57:08;;;;;;;;;;;22.40;64.80;;;;;;5004845;28;1403;-67
2023/11/02 13:59:34;;;;;;;;;;;22.40;64.60;;;;;;5028548;28;1477;-67
2023/11/02 14:02:00;;;;;;;;;;;22.40;64.40;;;;;;5027589;28;1280;-67
2023/11/02 14:04:26;;;;;;;;;;;22.50;64.40;;;;;;5025695;28;1431;-67
2023/11/02 14:06:55;;;;;;;;;;;22.50;64.30;;;;;;5026458;28;1905;-67
2023/11/02 14:09:20;;;;;;;;;;;22.50;64.20;;;;;;5028724;28;1241;-66
2023/11/02 14:11:46;;;;;;;;;;;22.60;64.10;;;;;;5028368;28;1523;-67
2023/11/02 14:14:11;;;;;;;;;;;22.60;64.00;;;;;;5029627;28;1351;-67
2023/11/02 14:16:37;;;;;;;;;;;22.60;64.00;;;;;;5028723;28;1136;-67
2023/11/02 14:19:03;;;;;;;;;;;22.60;63.90;;;;;;5029261;28;1227;-67
2023/11/02 14:21:28;;;;;;;;;;;22.70;63.90;;;;;;4999292;28;1438;-67
2023/11/02 14:23:54;;;;;;;;;;;22.70;63.70;;;;;;5010960;28;1428;-66
2023/11/02 14:26:22;;;;;;;;;;;22.70;63.70;;;;;;5028708;28;1961;-68
2023/11/02 14:28:49;;;;;;;;;;;22.70;63.60;;;;;;5028450;28;1331;-68
2023/11/02 14:31:14;;;;;;;;;;;22.80;63.70;;;;;;5030421;28;1444;-66
2023/11/02 14:33:40;;;;;;;;;;;22.80;63.50;;;;;;5005660;28;1492;-68